Time;durP1;ratioP1;P1;durP2;ratioP2;P2;SDS_P1;SDS_P2;PMS_P1;PMS_P2;Temp;Humidity;BMP_temperature;BMP_pressure;BME280_temperature;BME280_humidity;BME280_pressure;Samples;Min_cycle;Max_cycle;Signal;HPM_P1;HPM_P2
2022/05/22 00:01:40;;;;;;;;;;;21.70;52.20;;;;;;4990968;28;19979;-65
2022/05/22 00:04:05;;;;;;;;;;;21.70;52.20;;;;;;5006207;28;19917;-62
2022/05/22 00:06:31;;;;;;;;;;;21.70;52.20;;;;;;5001114;28;19924;-62
2022/05/22 00:08:56;;;;;;;;;;;21.70;52.10;;;;;;4982355;28;19918;-62
2022/05/22 00:11:24;;;;;;;;;;;21.70;52.10;;;;;;4985723;28;20514;-63
2022/05/22 00:13:50;;;;;;;;;;;21.70;52.10;;;;;;4996288;28;19921;-63
2022/05/22 00:19:00;;;;;;;;;;;21.70;52.10;;;;;;4982983;28;19924;-62
2022/05/22 00:21:25;;;;;;;;;;;21.70;52.30;;;;;;4985934;28;20380;-62
2022/05/22 00:23:50;;;;;;;;;;;21.60;52.20;;;;;;5003546;28;20007;-62
2022/05/22 00:26:16;;;;;;;;;;;21.70;52.20;;;;;;5002507;28;20012;-63
2022/05/22 00:28:41;;;;;;;;;;;21.70;52.20;;;;;;4982919;28;19925;-62
2022/05/22 00:31:07;;;;;;;;;;;21.70;52.30;;;;;;4983402;28;20181;-62
2022/05/22 00:33:33;;;;;;;;;;;21.70;52.30;;;;;;5001641;28;19996;-62
2022/05/22 00:35:58;;;;;;;;;;;21.60;52.20;;;;;;5003252;28;20430;-62
2022/05/22 00:38:23;;;;;;;;;;;21.70;52.10;;;;;;4986785;28;19953;-62
2022/05/22 00:40:49;;;;;;;;;;;21.70;52.20;;;;;;4983340;28;19984;-62
2022/05/22 00:43:31;;;;;;;;;;;21.60;52.10;;;;;;4997287;28;19918;-62
2022/05/22 00:45:56;;;;;;;;;;;21.60;52.30;;;;;;5002930;28;20479;-62
2022/05/22 00:48:22;;;;;;;;;;;21.60;52.20;;;;;;4986962;28;20041;-59
2022/05/22 00:50:48;;;;;;;;;;;21.60;52.10;;;;;;4982371;28;19917;-63
2022/05/22 00:53:13;;;;;;;;;;;21.60;52.10;;;;;;4995967;28;20441;-62
2022/05/22 00:55:38;;;;;;;;;;;21.60;52.20;;;;;;5001510;28;20431;-62
2022/05/22 00:58:09;;;;;;;;;;;21.60;52.20;;;;;;4990870;28;19976;-62
2022/05/22 01:00:38;;;;;;;;;;;21.60;52.20;;;;;;4982471;28;20560;-62
2022/05/22 01:05:49;;;;;;;;;;;21.60;52.30;;;;;;5003326;28;19960;-63
2022/05/22 01:08:15;;;;;;;;;;;21.60;52.20;;;;;;4991552;28;19969;-62
2022/05/22 01:10:42;;;;;;;;;;;21.60;52.30;;;;;;4982590;28;19921;-62
2022/05/22 01:13:08;;;;;;;;;;;21.60;52.30;;;;;;4990648;28;19924;-62
2022/05/22 01:15:33;;;;;;;;;;;21.60;52.30;;;;;;5001211;28;19918;-63
2022/05/22 01:17:59;;;;;;;;;;;21.60;52.30;;;;;;4995112;28;19921;-62
2022/05/22 01:20:24;;;;;;;;;;;21.50;52.30;;;;;;4980583;28;20499;-62
2022/05/22 01:22:50;;;;;;;;;;;21.60;52.40;;;;;;4988261;28;19924;-62
2022/05/22 01:25:15;;;;;;;;;;;21.60;52.40;;;;;;5001740;28;21698;-62
2022/05/22 01:27:41;;;;;;;;;;;21.50;52.30;;;;;;4999151;28;19926;-62
2022/05/22 01:30:16;;;;;;;;;;;21.50;52.30;;;;;;4981208;28;20356;-63
2022/05/22 01:32:43;;;;;;;;;;;21.50;52.20;;;;;;4985414;28;19929;-63
2022/05/22 01:35:08;;;;;;;;;;;21.50;52.30;;;;;;5002455;28;20293;-62
2022/05/22 01:37:34;;;;;;;;;;;21.50;52.20;;;;;;5000375;28;19968;-62
2022/05/22 01:39:59;;;;;;;;;;;21.50;52.30;;;;;;4981204;28;20020;-63
2022/05/22 01:42:25;;;;;;;;;;;21.50;52.30;;;;;;4981495;28;19972;-62
2022/05/22 01:44:50;;;;;;;;;;;21.50;52.30;;;;;;5000844;28;20670;-64
2022/05/22 01:47:16;;;;;;;;;;;21.50;52.30;;;;;;5002943;28;19917;-63
2022/05/22 01:49:41;;;;;;;;;;;21.50;52.30;;;;;;4984462;28;19994;-63
2022/05/22 01:52:07;;;;;;;;;;;21.50;52.30;;;;;;4982031;28;19924;-63
2022/05/22 01:54:32;;;;;;;;;;;21.50;52.30;;;;;;4997604;28;19914;-63
2022/05/22 01:56:58;;;;;;;;;;;21.50;52.90;;;;;;5002673;28;19918;-63
2022/05/22 01:59:23;;;;;;;;;;;21.50;52.40;;;;;;4988247;28;19975;-62
2022/05/22 02:01:48;;;;;;;;;;;21.50;53.10;;;;;;4982549;28;19922;-60
2022/05/22 02:04:14;;;;;;;;;;;21.50;52.40;;;;;;4992798;28;20028;-62
2022/05/22 02:09:24;;;;;;;;;;;21.40;52.30;;;;;;4989340;28;20536;-63
2022/05/22 02:11:49;;;;;;;;;;;21.40;52.20;;;;;;4981395;28;19933;-63
2022/05/22 02:14:15;;;;;;;;;;;21.40;52.30;;;;;;4991620;28;20039;-62
2022/05/22 02:16:40;;;;;;;;;;;21.40;52.30;;;;;;5001698;28;19927;-62
2022/05/22 02:19:05;;;;;;;;;;;21.40;52.40;;;;;;4992991;28;19921;-61
2022/05/22 02:21:32;;;;;;;;;;;21.40;52.40;;;;;;4982653;28;19918;-62
2022/05/22 02:23:57;;;;;;;;;;;21.40;52.40;;;;;;4987198;28;20652;-63
2022/05/22 02:26:22;;;;;;;;;;;21.40;52.50;;;;;;5002369;28;19964;-63
2022/05/22 02:28:48;;;;;;;;;;;21.40;52.50;;;;;;4996018;28;20629;-65
2022/05/22 02:31:13;;;;;;;;;;;21.40;52.50;;;;;;4981366;28;19922;-64
2022/05/22 02:33:40;;;;;;;;;;;21.40;52.50;;;;;;4984234;28;20012;-64
2022/05/22 02:36:06;;;;;;;;;;;21.40;52.50;;;;;;5003107;28;19914;-64
2022/05/22 02:38:32;;;;;;;;;;;21.40;52.50;;;;;;4998747;28;19925;-64
2022/05/22 02:40:58;;;;;;;;;;;21.40;52.60;;;;;;4980409;28;19921;-65
2022/05/22 02:43:23;;;;;;;;;;;21.40;52.50;;;;;;4981360;28;20615;-61
2022/05/22 02:45:49;;;;;;;;;;;21.40;52.50;;;;;;4999480;28;19914;-62
2022/05/22 02:48:14;;;;;;;;;;;21.40;52.50;;;;;;5001568;28;19917;-63
2022/05/22 02:50:40;;;;;;;;;;;21.30;52.50;;;;;;4982899;28;19961;-63
2022/05/22 02:53:06;;;;;;;;;;;21.30;52.50;;;;;;4982056;28;19972;-63
2022/05/22 02:55:31;;;;;;;;;;;21.30;52.40;;;;;;4996517;28;20021;-63
2022/05/22 02:57:56;;;;;;;;;;;21.30;52.40;;;;;;5001260;28;19917;-63
2022/05/22 03:00:23;;;;;;;;;;;21.30;52.50;;;;;;4987884;28;19924;-63
2022/05/22 03:02:49;;;;;;;;;;;21.30;52.50;;;;;;4982490;28;19922;-63
2022/05/22 03:05:15;;;;;;;;;;;21.30;52.50;;;;;;4994776;28;19997;-63
2022/05/22 03:07:40;;;;;;;;;;;21.30;52.50;;;;;;5004942;28;19983;-63
2022/05/22 03:10:06;;;;;;;;;;;21.30;52.60;;;;;;4994048;28;20274;-63
2022/05/22 03:12:31;;;;;;;;;;;21.30;52.50;;;;;;4985703;28;20051;-62
2022/05/22 03:14:57;;;;;;;;;;;21.30;52.50;;;;;;4989576;28;19924;-64
2022/05/22 03:17:23;;;;;;;;;;;21.30;52.60;;;;;;4985149;28;19914;-64
2022/05/22 03:19:48;;;;;;;;;;;21.30;52.50;;;;;;4990404;28;19928;-64
2022/05/22 03:22:14;;;;;;;;;;;21.30;52.50;;;;;;5004795;28;19928;-64
2022/05/22 03:24:39;;;;;;;;;;;21.30;52.60;;;;;;5001047;28;19953;-64
2022/05/22 03:27:05;;;;;;;;;;;21.20;52.40;;;;;;4983141;28;19914;-63
2022/05/22 03:29:31;;;;;;;;;;;21.30;52.10;;;;;;4985105;28;19914;-63
2022/05/22 03:31:56;;;;;;;;;;;21.20;52.40;;;;;;4988872;28;20377;-63
2022/05/22 03:34:22;;;;;;;;;;;21.20;53.10;;;;;;4986155;28;19925;-63
2022/05/22 03:36:47;;;;;;;;;;;21.10;53.20;;;;;;5004803;28;19913;-61
2022/05/22 03:39:12;;;;;;;;;;;21.00;53.00;;;;;;5004362;28;20028;-64
2022/05/22 03:41:38;;;;;;;;;;;21.10;53.00;;;;;;4985715;28;19922;-63
2022/05/22 03:44:05;;;;;;;;;;;21.00;52.70;;;;;;4985239;28;19918;-63
2022/05/22 03:46:31;;;;;;;;;;;21.00;52.80;;;;;;5001790;28;19917;-63
2022/05/22 03:48:56;;;;;;;;;;;21.00;52.40;;;;;;5002368;28;19920;-63
2022/05/22 03:51:22;;;;;;;;;;;20.90;52.40;;;;;;4989093;28;19917;-63
2022/05/22 03:53:47;;;;;;;;;;;20.90;52.20;;;;;;4985021;28;19925;-63
2022/05/22 03:56:14;;;;;;;;;;;20.90;52.40;;;;;;4983614;28;20521;-63
2022/05/22 03:58:39;;;;;;;;;;;20.90;52.20;;;;;;4983770;28;19914;-63
2022/05/22 04:01:07;;;;;;;;;;;20.90;52.00;;;;;;4993476;28;19924;-63
2022/05/22 04:03:34;;;;;;;;;;;20.90;52.00;;;;;;5003787;28;19921;-63
2022/05/22 04:06:01;;;;;;;;;;;20.90;52.10;;;;;;4993711;28;19921;-62
2022/05/22 04:08:27;;;;;;;;;;;20.90;52.00;;;;;;4990407;28;19992;-61
2022/05/22 04:10:53;;;;;;;;;;;20.90;52.00;;;;;;4990533;28;19926;-62
2022/05/22 04:13:18;;;;;;;;;;;20.90;51.90;;;;;;5004896;28;20711;-63
2022/05/22 04:15:46;;;;;;;;;;;20.80;51.80;;;;;;4995685;28;19925;-62
2022/05/22 04:18:12;;;;;;;;;;;20.80;51.80;;;;;;4983934;28;19979;-62
2022/05/22 04:20:37;;;;;;;;;;;20.80;51.80;;;;;;4987304;28;20248;-63
2022/05/22 04:25:53;;;;;;;;;;;20.80;52.00;;;;;;4997418;28;20629;-63
2022/05/22 04:28:19;;;;;;;;;;;20.80;52.00;;;;;;4983853;28;20070;-62
2022/05/22 04:30:44;;;;;;;;;;;20.80;52.20;;;;;;4986887;28;19917;-63
2022/05/22 04:33:09;;;;;;;;;;;20.80;52.20;;;;;;5003295;28;19951;-63
2022/05/22 04:35:37;;;;;;;;;;;20.80;52.30;;;;;;5000729;28;19920;-63
2022/05/22 04:38:02;;;;;;;;;;;20.80;52.40;;;;;;4983990;28;19918;-63
2022/05/22 04:40:28;;;;;;;;;;;20.80;52.50;;;;;;4982758;28;19922;-63
2022/05/22 04:42:53;;;;;;;;;;;20.80;52.50;;;;;;5001809;28;19957;-63
2022/05/22 04:45:19;;;;;;;;;;;20.80;52.70;;;;;;5001888;28;20696;-63
2022/05/22 04:47:44;;;;;;;;;;;20.80;52.70;;;;;;4984475;28;19918;-63
2022/05/22 04:50:10;;;;;;;;;;;20.80;52.80;;;;;;4982749;28;19928;-63
2022/05/22 04:52:36;;;;;;;;;;;20.80;52.90;;;;;;4997746;28;19917;-63
2022/05/22 04:55:01;;;;;;;;;;;20.80;53.00;;;;;;5002541;28;19948;-62
2022/05/22 04:57:27;;;;;;;;;;;20.80;53.00;;;;;;4988757;28;19918;-63
2022/05/22 04:59:52;;;;;;;;;;;20.80;52.90;;;;;;4982945;28;20712;-63
2022/05/22 05:02:17;;;;;;;;;;;20.80;53.00;;;;;;4977721;28;20052;-63
2022/05/22 05:04:43;;;;;;;;;;;20.80;53.00;;;;;;5002104;28;19920;-63
2022/05/22 05:07:08;;;;;;;;;;;20.80;53.20;;;;;;4990384;28;20296;-63
2022/05/22 05:09:34;;;;;;;;;;;20.80;53.20;;;;;;4981404;28;19914;-63
2022/05/22 05:12:04;;;;;;;;;;;20.80;53.10;;;;;;4990659;28;19921;-63
2022/05/22 05:14:30;;;;;;;;;;;20.80;53.20;;;;;;5001741;28;19924;-63
2022/05/22 05:16:56;;;;;;;;;;;20.80;52.70;;;;;;4994556;28;19922;-63
2022/05/22 05:19:21;;;;;;;;;;;20.80;52.70;;;;;;4981905;28;19953;-63
2022/05/22 05:21:47;;;;;;;;;;;20.80;52.60;;;;;;4985235;28;19922;-63
2022/05/22 05:24:12;;;;;;;;;;;20.80;52.50;;;;;;5001198;28;20383;-63
2022/05/22 05:26:38;;;;;;;;;;;20.80;52.20;;;;;;4998481;28;19924;-61
2022/05/22 05:29:03;;;;;;;;;;;20.80;52.80;;;;;;4981507;28;19918;-60
2022/05/22 05:31:29;;;;;;;;;;;20.80;53.00;;;;;;4982665;28;19934;-63
2022/05/22 05:33:54;;;;;;;;;;;20.80;54.50;;;;;;4999724;28;20419;-64
2022/05/22 05:36:19;;;;;;;;;;;20.80;53.70;;;;;;5002019;28;19918;-63
2022/05/22 05:38:45;;;;;;;;;;;20.70;53.20;;;;;;4980195;28;20630;-63
2022/05/22 05:41:11;;;;;;;;;;;20.70;53.10;;;;;;4980723;28;19972;-63
2022/05/22 05:43:37;;;;;;;;;;;20.70;53.10;;;;;;4998378;28;20396;-63
2022/05/22 05:46:02;;;;;;;;;;;20.70;53.10;;;;;;5001040;28;19920;-63
2022/05/22 05:48:28;;;;;;;;;;;20.70;53.30;;;;;;4985301;28;20359;-64
2022/05/22 05:50:55;;;;;;;;;;;20.30;51.40;;;;;;4979343;28;19976;-64
2022/05/22 05:53:21;;;;;;;;;;;20.10;53.50;;;;;;4995671;28;20640;-65
2022/05/22 05:55:47;;;;;;;;;;;20.30;53.80;;;;;;5001484;28;19949;-63
2022/05/22 05:58:13;;;;;;;;;;;20.50;53.40;;;;;;4989699;28;19921;-61
2022/05/22 06:00:38;;;;;;;;;;;20.50;53.10;;;;;;4978841;28;20572;-65
2022/05/22 06:03:03;;;;;;;;;;;20.60;53.10;;;;;;4923542;28;1969567;-64
2022/05/22 06:05:29;;;;;;;;;;;20.50;52.70;;;;;;5001587;28;19937;-64
2022/05/22 06:07:54;;;;;;;;;;;20.60;53.30;;;;;;4993528;28;19925;-64
2022/05/22 06:10:20;;;;;;;;;;;20.60;54.50;;;;;;4981877;28;19922;-64
2022/05/22 06:12:46;;;;;;;;;;;20.70;54.90;;;;;;4987527;28;19924;-63
2022/05/22 06:15:12;;;;;;;;;;;20.70;55.00;;;;;;5001881;28;19917;-64
2022/05/22 06:17:38;;;;;;;;;;;20.70;54.80;;;;;;4996227;28;19918;-63
2022/05/22 06:20:06;;;;;;;;;;;20.70;54.50;;;;;;4981393;28;19924;-63
2022/05/22 06:22:32;;;;;;;;;;;20.70;54.30;;;;;;4983525;28;20393;-62
2022/05/22 06:24:57;;;;;;;;;;;20.70;53.90;;;;;;4983330;28;19913;-61
2022/05/22 06:27:23;;;;;;;;;;;20.70;53.80;;;;;;4979280;28;19940;-62
2022/05/22 06:29:49;;;;;;;;;;;20.70;53.70;;;;;;4979716;28;19960;-62
2022/05/22 06:32:15;;;;;;;;;;;20.70;53.60;;;;;;4977000;28;19919;-63
2022/05/22 06:34:41;;;;;;;;;;;20.60;53.50;;;;;;4998752;28;20431;-62
2022/05/22 06:37:07;;;;;;;;;;;20.60;53.40;;;;;;4998495;28;19917;-62
2022/05/22 06:39:54;;;;;;;;;;;20.60;53.40;;;;;;4984649;28;22055;-63
2022/05/22 06:42:19;;;;;;;;;;;20.60;53.40;;;;;;4982588;28;19922;-62
2022/05/22 06:44:49;;;;;;;;;;;20.60;53.40;;;;;;5004461;28;20323;-62
2022/05/22 06:47:14;;;;;;;;;;;20.60;53.30;;;;;;5008459;28;19917;-62
2022/05/22 06:49:42;;;;;;;;;;;20.60;53.30;;;;;;4988148;28;19953;-61
2022/05/22 06:52:07;;;;;;;;;;;20.60;53.20;;;;;;4986565;28;20377;-63
2022/05/22 06:54:34;;;;;;;;;;;20.60;53.30;;;;;;4998891;28;20365;-62
2022/05/22 06:57:00;;;;;;;;;;;20.60;53.20;;;;;;5004803;28;19914;-63
2022/05/22 06:59:25;;;;;;;;;;;20.60;53.10;;;;;;4990535;28;19918;-63
2022/05/22 07:01:50;;;;;;;;;;;20.50;53.10;;;;;;4976252;28;19929;-62
2022/05/22 07:04:16;;;;;;;;;;;20.50;53.10;;;;;;4996003;28;19917;-62
2022/05/22 07:06:41;;;;;;;;;;;20.40;53.60;;;;;;4996938;28;19913;-63
2022/05/22 07:09:07;;;;;;;;;;;20.50;53.50;;;;;;4991558;28;19921;-62
2022/05/22 07:11:38;;;;;;;;;;;20.50;53.40;;;;;;4980043;28;20448;-62
2022/05/22 07:14:04;;;;;;;;;;;20.50;53.30;;;;;;4992280;28;19926;-63
2022/05/22 07:16:31;;;;;;;;;;;20.40;53.30;;;;;;5003566;28;19921;-63
2022/05/22 07:18:57;;;;;;;;;;;20.40;53.50;;;;;;4995078;28;19938;-62
2022/05/22 07:21:24;;;;;;;;;;;20.40;51.90;;;;;;4984511;28;19918;-61
2022/05/22 07:23:50;;;;;;;;;;;20.40;53.30;;;;;;4989323;28;19913;-63
2022/05/22 07:26:17;;;;;;;;;;;20.30;51.90;;;;;;4988978;28;19920;-63
2022/05/22 07:28:43;;;;;;;;;;;20.30;51.70;;;;;;5000440;28;19921;-63
2022/05/22 07:31:15;;;;;;;;;;;20.20;51.90;;;;;;4974967;28;19968;-63
2022/05/22 07:33:40;;;;;;;;;;;20.20;51.60;;;;;;4985789;28;19952;-63
2022/05/22 07:36:05;;;;;;;;;;;20.00;51.90;;;;;;4975521;28;20355;-62
2022/05/22 07:38:31;;;;;;;;;;;20.10;52.10;;;;;;5011409;28;19921;-62
2022/05/22 07:40:56;;;;;;;;;;;20.20;52.30;;;;;;4977964;28;20561;-62
2022/05/22 07:43:22;;;;;;;;;;;20.20;52.40;;;;;;4984336;28;19914;-62
2022/05/22 07:45:47;;;;;;;;;;;20.30;52.50;;;;;;4991907;28;19959;-62
2022/05/22 07:48:13;;;;;;;;;;;20.30;52.80;;;;;;5014829;28;19921;-62
2022/05/22 07:50:39;;;;;;;;;;;20.30;52.80;;;;;;4973156;28;20366;-63
2022/05/22 07:53:05;;;;;;;;;;;20.20;52.60;;;;;;4996601;28;19914;-62
2022/05/22 07:55:30;;;;;;;;;;;20.20;52.00;;;;;;4985781;28;19913;-61
2022/05/22 07:57:56;;;;;;;;;;;20.20;52.40;;;;;;5016031;28;19976;-62
2022/05/22 08:00:21;;;;;;;;;;;20.20;52.20;;;;;;4977197;28;19914;-62
2022/05/22 08:02:46;;;;;;;;;;;20.20;52.30;;;;;;4998319;28;20297;-62
2022/05/22 08:05:12;;;;;;;;;;;20.20;51.80;;;;;;4996371;28;19919;-62
2022/05/22 08:07:38;;;;;;;;;;;20.10;52.50;;;;;;5003106;28;19918;-62
2022/05/22 08:10:04;;;;;;;;;;;20.10;52.40;;;;;;4994699;28;19918;-63
2022/05/22 08:12:29;;;;;;;;;;;20.20;52.10;;;;;;4984828;28;20157;-63
2022/05/22 08:14:55;;;;;;;;;;;20.10;51.90;;;;;;4992127;28;19918;-62
2022/05/22 08:17:21;;;;;;;;;;;20.10;52.00;;;;;;4990738;28;19921;-63
2022/05/22 08:19:50;;;;;;;;;;;20.10;52.20;;;;;;4998950;28;19914;-59
2022/05/22 08:22:15;;;;;;;;;;;20.20;52.30;;;;;;4984078;28;19925;-63
2022/05/22 08:24:41;;;;;;;;;;;20.30;53.40;;;;;;4990603;28;19918;-63
2022/05/22 08:27:06;;;;;;;;;;;20.20;52.40;;;;;;5003759;28;19917;-63
2022/05/22 08:29:32;;;;;;;;;;;20.30;53.00;;;;;;5004722;28;20436;-63
2022/05/22 08:31:57;;;;;;;;;;;20.30;53.20;;;;;;4987349;28;19929;-64
2022/05/22 08:34:23;;;;;;;;;;;20.30;52.90;;;;;;4985554;28;19925;-64
2022/05/22 08:36:51;;;;;;;;;;;20.30;53.00;;;;;;5003754;28;19920;-62
2022/05/22 08:39:19;;;;;;;;;;;20.30;52.40;;;;;;5002640;28;19960;-64
2022/05/22 08:41:46;;;;;;;;;;;20.20;52.60;;;;;;4977821;28;20701;-64
2022/05/22 08:44:19;;;;;;;;;;;20.20;51.40;;;;;;4982421;28;19917;-63
2022/05/22 08:47:03;;;;;;;;;;;20.10;52.20;;;;;;4987281;28;20784;-64
2022/05/22 08:49:38;;;;;;;;;;;20.10;51.80;;;;;;5002588;28;19913;-63
2022/05/22 08:52:10;;;;;;;;;;;20.10;52.00;;;;;;4959175;28;19918;-63
2022/05/22 08:54:45;;;;;;;;;;;20.10;51.90;;;;;;4962657;28;19918;-63
2022/05/22 09:00:05;;;;;;;;;;;20.10;51.40;;;;;;4983539;28;19937;-63
2022/05/22 09:02:34;;;;;;;;;;;20.10;51.50;;;;;;5002520;28;20408;-63
2022/05/22 09:05:04;;;;;;;;;;;20.10;50.90;;;;;;4999344;28;20035;-63
2022/05/22 09:07:36;;;;;;;;;;;20.00;50.90;;;;;;4945193;28;19925;-57
2022/05/22 09:13:14;;;;;;;;;;;20.10;51.80;;;;;;5000228;28;19923;-63
2022/05/22 09:15:50;;;;;;;;;;;20.10;51.70;;;;;;4996004;28;19996;-63
2022/05/22 09:18:24;;;;;;;;;;;20.10;51.50;;;;;;4982418;28;20619;-63
2022/05/22 09:20:57;;;;;;;;;;;20.10;51.80;;;;;;4988302;28;19921;-63
2022/05/22 09:23:43;;;;;;;;;;;20.00;49.80;;;;;;5000886;28;19925;-63
2022/05/22 09:26:10;;;;;;;;;;;19.50;51.90;;;;;;4994804;28;19917;-63
2022/05/22 09:28:53;;;;;;;;;;;19.80;51.60;;;;;;4982043;28;19913;-63
2022/05/22 09:31:28;;;;;;;;;;;19.90;51.60;;;;;;4989395;28;19924;-63
2022/05/22 09:34:12;;;;;;;;;;;20.00;51.30;;;;;;5000479;28;19917;-63
2022/05/22 09:36:40;;;;;;;;;;;20.00;50.80;;;;;;4991887;28;19961;-62
2022/05/22 09:39:26;;;;;;;;;;;20.00;50.80;;;;;;4982077;28;20565;-62
2022/05/22 09:41:59;;;;;;;;;;;20.00;50.30;;;;;;4993286;28;19927;-63
2022/05/22 09:44:24;;;;;;;;;;;20.00;50.50;;;;;;5001661;28;20439;-62
2022/05/22 09:47:04;;;;;;;;;;;20.10;50.30;;;;;;4992004;28;19922;-63
2022/05/22 09:49:37;;;;;;;;;;;20.10;49.90;;;;;;4980563;28;19925;-63
2022/05/22 09:52:12;;;;;;;;;;;20.10;50.20;;;;;;4994073;28;20189;-63
2022/05/22 09:54:46;;;;;;;;;;;20.10;50.00;;;;;;5002248;28;20032;-62
2022/05/22 09:57:30;;;;;;;;;;;20.00;49.70;;;;;;4990189;28;20749;-63
2022/05/22 10:00:10;;;;;;;;;;;20.00;50.30;;;;;;4981358;28;19960;-63
2022/05/22 10:02:38;;;;;;;;;;;20.00;50.40;;;;;;4995349;28;20402;-63
2022/05/22 10:05:27;;;;;;;;;;;20.00;51.60;;;;;;5001968;28;19925;-63
2022/05/22 10:08:11;;;;;;;;;;;20.10;51.00;;;;;;4957339;28;19918;-62
2022/05/22 10:10:50;;;;;;;;;;;20.10;50.80;;;;;;4981374;28;19913;-64
2022/05/22 10:13:18;;;;;;;;;;;19.90;51.40;;;;;;4993322;28;20482;-63
2022/05/22 10:15:52;;;;;;;;;;;19.90;49.70;;;;;;5006050;28;20375;-63
2022/05/22 10:18:24;;;;;;;;;;;20.00;51.30;;;;;;4985700;28;19914;-61
2022/05/22 10:20:53;;;;;;;;;;;20.10;52.00;;;;;;4985601;28;20385;-63
2022/05/22 10:23:30;;;;;;;;;;;20.10;52.20;;;;;;5001904;28;19921;-63
2022/05/22 10:26:11;;;;;;;;;;;20.10;51.90;;;;;;5005503;28;20471;-64
2022/05/22 10:28:40;;;;;;;;;;;20.10;50.80;;;;;;4983682;28;19945;-63
2022/05/22 10:31:13;;;;;;;;;;;20.10;49.80;;;;;;4968111;28;19914;-63
2022/05/22 10:33:42;;;;;;;;;;;20.00;49.70;;;;;;5003322;28;20008;-62
2022/05/22 10:36:11;;;;;;;;;;;20.00;50.20;;;;;;5004374;28;19928;-62
2022/05/22 10:38:57;;;;;;;;;;;20.00;50.40;;;;;;4985512;28;19925;-61
2022/05/22 10:44:16;;;;;;;;;;;20.20;51.60;;;;;;4965633;28;20300;-63
2022/05/22 10:46:49;;;;;;;;;;;20.10;51.10;;;;;;4968218;28;20419;-62
2022/05/22 10:49:15;;;;;;;;;;;20.10;50.60;;;;;;5004859;28;20340;-63
2022/05/22 10:51:40;;;;;;;;;;;20.10;49.40;;;;;;5003614;28;19917;-62
2022/05/22 10:54:06;;;;;;;;;;;20.00;51.20;;;;;;4985455;28;19925;-62
2022/05/22 10:56:32;;;;;;;;;;;20.10;51.80;;;;;;4985077;28;19920;-63
2022/05/22 10:58:59;;;;;;;;;;;20.20;51.90;;;;;;5001097;28;19918;-56
2022/05/22 11:01:25;;;;;;;;;;;20.20;51.50;;;;;;4947183;28;19917;-61
2022/05/22 11:04:23;;;;;;;;;;;20.20;50.30;;;;;;4982928;28;19929;-62
2022/05/22 11:06:58;;;;;;;;;;;20.10;49.00;;;;;;4952357;28;19926;-62
2022/05/22 11:09:27;;;;;;;;;;;20.20;50.80;;;;;;4965382;28;19965;-61
2022/05/22 11:12:03;;;;;;;;;;;20.20;51.60;;;;;;4965429;28;20005;-62
2022/05/22 11:14:32;;;;;;;;;;;20.20;51.60;;;;;;4978754;28;20477;-61
2022/05/22 11:17:17;;;;;;;;;;;20.20;51.40;;;;;;4984038;28;20571;-61
2022/05/22 11:19:43;;;;;;;;;;;20.20;51.20;;;;;;4964721;28;20330;-62
2022/05/22 11:22:09;;;;;;;;;;;20.20;50.20;;;;;;4965846;28;19918;-62
2022/05/22 11:24:34;;;;;;;;;;;20.20;52.30;;;;;;5004296;28;19918;-64
2022/05/22 11:27:22;;;;;;;;;;;20.00;50.40;;;;;;5004595;28;19936;-62
2022/05/22 11:29:57;;;;;;;;;;;20.20;54.60;;;;;;4946934;28;21188;-62
2022/05/22 11:32:22;;;;;;;;;;;20.10;51.70;;;;;;4965998;28;19926;-62
2022/05/22 11:35:09;;;;;;;;;;;20.20;54.80;;;;;;5004227;28;19918;-63
2022/05/22 11:37:35;;;;;;;;;;;20.20;51.20;;;;;;5001700;28;20000;-64
2022/05/22 11:40:18;;;;;;;;;;;20.20;51.10;;;;;;4984801;28;19992;-62
2022/05/22 11:42:44;;;;;;;;;;;20.30;52.90;;;;;;4985059;28;19921;-62
2022/05/22 11:45:22;;;;;;;;;;;20.20;52.20;;;;;;5002837;28;19921;-62
2022/05/22 11:48:02;;;;;;;;;;;20.00;51.60;;;;;;5001551;28;19918;-63
2022/05/22 11:50:38;;;;;;;;;;;20.10;50.60;;;;;;4984053;28;19921;-62
2022/05/22 11:53:22;;;;;;;;;;;20.00;50.80;;;;;;4986225;28;19913;-64
2022/05/22 11:56:06;;;;;;;;;;;20.10;51.10;;;;;;5004162;28;19933;-61
2022/05/22 11:58:45;;;;;;;;;;;20.20;52.30;;;;;;4991085;28;19914;-60
2022/05/22 12:01:31;;;;;;;;;;;20.20;51.20;;;;;;4983121;28;19932;-62
2022/05/22 12:03:56;;;;;;;;;;;20.20;49.90;;;;;;4992291;28;19948;-62
2022/05/22 12:06:22;;;;;;;;;;;20.20;50.80;;;;;;5004266;28;19917;-62
2022/05/22 12:08:50;;;;;;;;;;;20.20;51.00;;;;;;4995986;28;19914;-61
2022/05/22 12:11:25;;;;;;;;;;;20.20;50.10;;;;;;4983124;28;19937;-61
2022/05/22 12:14:16;;;;;;;;;;;20.20;49.70;;;;;;4989502;28;19913;-63
2022/05/22 12:16:53;;;;;;;;;;;20.20;49.50;;;;;;4995501;28;19913;-61
2022/05/22 12:19:32;;;;;;;;;;;20.20;49.60;;;;;;4993027;28;19914;-62
2022/05/22 12:22:17;;;;;;;;;;;20.20;49.80;;;;;;4983023;28;19956;-61
2022/05/22 12:24:49;;;;;;;;;;;20.20;49.60;;;;;;4993707;28;19917;-62
2022/05/22 12:27:20;;;;;;;;;;;20.20;49.60;;;;;;5002103;28;19917;-61
2022/05/22 12:30:00;;;;;;;;;;;20.20;49.40;;;;;;4990588;28;19914;-62
2022/05/22 12:32:25;;;;;;;;;;;20.30;49.60;;;;;;4983148;28;20341;-62
2022/05/22 12:34:52;;;;;;;;;;;20.20;49.10;;;;;;4994784;28;20007;-62
2022/05/22 12:37:29;;;;;;;;;;;20.20;49.10;;;;;;5001705;28;19949;-61
2022/05/22 12:40:18;;;;;;;;;;;20.20;49.40;;;;;;4990487;28;19921;-60
2022/05/22 12:42:45;;;;;;;;;;;20.30;49.40;;;;;;4975359;28;19922;-59
2022/05/22 12:45:10;;;;;;;;;;;20.20;49.10;;;;;;4995740;28;20401;-62
2022/05/22 12:47:43;;;;;;;;;;;20.20;49.40;;;;;;4984871;28;19917;-62
2022/05/22 12:50:09;;;;;;;;;;;20.30;51.30;;;;;;4989626;28;20313;-62
2022/05/22 12:52:34;;;;;;;;;;;20.30;50.80;;;;;;4982917;28;19921;-62
2022/05/22 12:55:00;;;;;;;;;;;20.30;50.40;;;;;;4992935;28;19914;-59
2022/05/22 12:57:25;;;;;;;;;;;20.20;49.80;;;;;;5002825;28;20004;-61
2022/05/22 12:59:55;;;;;;;;;;;20.20;50.10;;;;;;4993106;28;19922;-61
2022/05/22 13:02:31;;;;;;;;;;;20.20;49.90;;;;;;4982074;28;20400;-61
2022/05/22 13:04:57;;;;;;;;;;;20.20;49.40;;;;;;4991880;28;19914;-61
2022/05/22 13:07:24;;;;;;;;;;;20.30;49.10;;;;;;5001381;28;20013;-62
2022/05/22 13:09:51;;;;;;;;;;;20.30;49.70;;;;;;4993112;28;19914;-61
2022/05/22 13:12:16;;;;;;;;;;;20.30;49.50;;;;;;4982226;28;19914;-60
2022/05/22 13:14:47;;;;;;;;;;;20.30;47.90;;;;;;4989077;28;19940;-61
2022/05/22 13:17:14;;;;;;;;;;;20.30;48.70;;;;;;5003326;28;19945;-60
2022/05/22 13:19:49;;;;;;;;;;;20.30;48.80;;;;;;4996194;28;19953;-62
2022/05/22 13:22:24;;;;;;;;;;;20.30;49.30;;;;;;4982423;28;20150;-61
2022/05/22 13:24:49;;;;;;;;;;;20.30;48.50;;;;;;4988004;28;19917;-61
2022/05/22 13:27:34;;;;;;;;;;;20.30;48.50;;;;;;5002864;28;20221;-62
2022/05/22 13:30:01;;;;;;;;;;;20.20;48.20;;;;;;4996023;28;20312;-62
2022/05/22 13:32:31;;;;;;;;;;;20.20;48.40;;;;;;4981577;28;20021;-60
2022/05/22 13:34:57;;;;;;;;;;;20.20;47.90;;;;;;4986350;28;19914;-62
2022/05/22 13:37:28;;;;;;;;;;;20.10;47.90;;;;;;5001493;28;19921;-60
2022/05/22 13:39:56;;;;;;;;;;;20.20;48.90;;;;;;4996121;28;19929;-61
2022/05/22 13:42:24;;;;;;;;;;;20.10;47.10;;;;;;4982283;28;19918;-60
2022/05/22 13:44:53;;;;;;;;;;;20.20;48.60;;;;;;4983685;28;19922;-58
2022/05/22 13:47:21;;;;;;;;;;;20.20;48.60;;;;;;5001710;28;19921;-61
2022/05/22 13:49:50;;;;;;;;;;;20.30;48.60;;;;;;4999400;28;19913;-61
2022/05/22 13:52:37;;;;;;;;;;;20.30;48.00;;;;;;4980733;28;19918;-57
2022/05/22 13:55:11;;;;;;;;;;;20.30;47.50;;;;;;4985195;28;19917;-61
2022/05/22 13:57:37;;;;;;;;;;;20.30;48.50;;;;;;5001782;28;20459;-59
2022/05/22 14:00:07;;;;;;;;;;;20.30;48.50;;;;;;4997872;28;19968;-60
2022/05/22 14:02:45;;;;;;;;;;;20.30;48.20;;;;;;4982650;28;19922;-62
2022/05/22 14:05:10;;;;;;;;;;;20.30;48.00;;;;;;4984163;28;19925;-62
2022/05/22 14:07:55;;;;;;;;;;;20.30;48.70;;;;;;5002150;28;19914;-62
2022/05/22 14:10:28;;;;;;;;;;;20.30;48.90;;;;;;4997843;28;19925;-61
2022/05/22 14:12:53;;;;;;;;;;;20.40;48.60;;;;;;4982505;28;20041;-61
2022/05/22 14:15:26;;;;;;;;;;;20.30;48.00;;;;;;4983303;28;19918;-61
2022/05/22 14:17:51;;;;;;;;;;;20.40;48.20;;;;;;5002251;28;20176;-62
2022/05/22 14:20:24;;;;;;;;;;;20.30;49.40;;;;;;4999391;28;19913;-61
2022/05/22 14:22:51;;;;;;;;;;;20.30;48.50;;;;;;4965417;28;19926;-61
2022/05/22 14:25:18;;;;;;;;;;;20.30;48.80;;;;;;4983231;28;19918;-60
2022/05/22 14:27:44;;;;;;;;;;;20.40;47.90;;;;;;5000917;28;19925;-61
2022/05/22 14:30:19;;;;;;;;;;;20.40;48.90;;;;;;5001680;28;19918;-61
2022/05/22 14:32:45;;;;;;;;;;;20.40;48.70;;;;;;5002138;28;19924;-61
2022/05/22 14:35:15;;;;;;;;;;;20.40;48.20;;;;;;4999794;28;20012;-61
2022/05/22 14:37:41;;;;;;;;;;;20.40;49.40;;;;;;4983359;28;19969;-61
2022/05/22 14:40:13;;;;;;;;;;;20.40;49.60;;;;;;4981169;28;19921;-58
2022/05/22 14:42:38;;;;;;;;;;;20.50;49.40;;;;;;5000596;28;19924;-61
2022/05/22 14:45:28;;;;;;;;;;;20.50;48.00;;;;;;5000898;28;19913;-56